createdAt,value
2022-08-25T00:01:55.789Z,1.50
2022-08-25T00:04:23.497Z,2.03
2022-08-25T00:06:50.961Z,1.50
2022-08-25T00:09:20.434Z,1.80
2022-08-25T00:11:49.309Z,1.60
2022-08-25T00:14:26.417Z,1.60
2022-08-25T00:16:53.337Z,1.55
2022-08-25T00:19:26.573Z,1.48
2022-08-25T00:21:53.287Z,1.77
2022-08-25T00:24:21.057Z,1.48
2022-08-25T00:26:51.487Z,1.77
2022-08-25T00:29:18.750Z,1.75
2022-08-25T00:31:45.566Z,1.45
2022-08-25T00:34:19.222Z,1.92
2022-08-25T00:36:47.189Z,1.60
2022-08-25T00:39:14.301Z,1.60
2022-08-25T00:41:43.602Z,1.55
2022-08-25T00:44:13.299Z,1.95
2022-08-25T00:46:44.164Z,1.73
2022-08-25T00:49:24.919Z,1.85
2022-08-25T00:52:13.189Z,1.90
2022-08-25T00:54:45.708Z,1.92
2022-08-25T00:57:16.694Z,1.55
2022-08-25T00:59:44.435Z,1.88
2022-08-25T01:02:13.639Z,1.90
2022-08-25T01:04:48.673Z,1.67
2022-08-25T01:07:18.603Z,1.67
2022-08-25T01:09:47.733Z,1.60
2022-08-25T01:12:14.223Z,1.50
2022-08-25T01:14:41.168Z,2.03
2022-08-25T01:17:07.678Z,1.63
2022-08-25T01:19:34.134Z,1.80
2022-08-25T01:22:00.949Z,2.25
2022-08-25T01:24:38.870Z,1.88
2022-08-25T01:27:07.129Z,2.13
2022-08-25T01:29:34.259Z,2.30
2022-08-25T01:32:05.294Z,1.83
2022-08-25T01:34:35.169Z,1.77
2022-08-25T01:37:02.234Z,1.83
2022-08-25T01:39:31.425Z,1.90
2022-08-25T01:42:04.668Z,1.80
2022-08-25T01:44:31.934Z,1.80
2022-08-25T01:46:58.409Z,2.05
2022-08-25T01:49:25.116Z,1.75
2022-08-25T01:51:56.618Z,1.75
2022-08-25T01:54:23.713Z,2.10
2022-08-25T01:56:50.186Z,1.67
2022-08-25T01:59:24.370Z,1.85
2022-08-25T02:01:57.502Z,2.03
2022-08-25T02:04:26.934Z,1.77
2022-08-25T02:06:53.450Z,1.95
2022-08-25T02:09:19.864Z,1.77
2022-08-25T02:11:47.871Z,1.95
2022-08-25T02:14:15.658Z,1.70
2022-08-25T02:16:46.529Z,2.03
2022-08-25T02:19:13.046Z,1.73
2022-08-25T02:21:39.995Z,1.83
2022-08-25T02:24:07.622Z,1.70
2022-08-25T02:26:34.717Z,2.00
2022-08-25T02:29:01.250Z,1.70
2022-08-25T02:31:27.874Z,1.80
2022-08-25T02:33:55.147Z,1.90
2022-08-25T02:36:23.232Z,2.00
2022-08-25T02:38:50.862Z,1.75
2022-08-25T02:41:21.486Z,1.98
2022-08-25T02:43:48.750Z,1.80
2022-08-25T02:46:17.544Z,1.90
2022-08-25T02:48:44.528Z,2.03
2022-08-25T02:51:12.299Z,2.15
2022-08-25T02:53:40.506Z,1.95
2022-08-25T02:56:11.073Z,1.77
2022-08-25T02:58:38.685Z,1.90
2022-08-25T03:01:06.835Z,2.30
2022-08-25T03:03:38.820Z,1.95
2022-08-25T03:06:08.546Z,1.98
2022-08-25T03:08:36.258Z,1.88
2022-08-25T03:11:03.822Z,1.98
2022-08-25T03:13:30.337Z,1.75
2022-08-25T03:15:56.780Z,2.25
2022-08-25T03:18:23.211Z,2.40
2022-08-25T03:20:51.131Z,1.85
2022-08-25T03:23:17.928Z,1.95
2022-08-25T03:26:02.955Z,1.85
2022-08-25T03:28:33.077Z,1.50
2022-08-25T03:31:03.207Z,2.05
2022-08-25T03:33:30.658Z,2.00
2022-08-25T03:35:58.227Z,2.03
2022-08-25T03:38:25.522Z,2.08
2022-08-25T03:40:53.316Z,2.10
2022-08-25T03:43:20.578Z,2.05
2022-08-25T03:45:48.105Z,1.90
2022-08-25T03:48:16.141Z,1.77
2022-08-25T03:50:52.261Z,1.70
2022-08-25T03:53:20.059Z,2.20
2022-08-25T03:55:47.437Z,2.03
2022-08-25T03:58:14.018Z,2.15
2022-08-25T04:00:40.869Z,2.13
2022-08-25T04:03:07.742Z,2.00
2022-08-25T04:05:34.229Z,1.95
2022-08-25T04:08:01.899Z,2.38
2022-08-25T04:10:28.982Z,2.10
2022-08-25T04:12:56.183Z,2.30
2022-08-25T04:15:24.021Z,1.98
2022-08-25T04:17:55.312Z,2.10
2022-08-25T04:20:21.950Z,2.10
2022-08-25T04:22:48.498Z,2.00
2022-08-25T04:25:15.017Z,2.38
2022-08-25T04:27:41.862Z,2.55
2022-08-25T04:30:09.022Z,2.15
2022-08-25T04:32:36.899Z,2.47
2022-08-25T04:35:05.296Z,2.60
2022-08-25T04:37:31.817Z,2.53
2022-08-25T04:39:58.311Z,2.40
2022-08-25T04:42:26.364Z,2.60
2022-08-25T04:44:54.383Z,2.40
2022-08-25T04:47:28.320Z,2.10
2022-08-25T04:49:57.127Z,2.20
2022-08-25T04:52:29.517Z,2.42
2022-08-25T04:54:56.710Z,2.30
2022-08-25T04:57:23.261Z,2.33
2022-08-25T04:59:49.892Z,2.60
2022-08-25T05:02:16.321Z,2.20
2022-08-25T05:04:42.904Z,2.38
2022-08-25T05:07:09.371Z,2.60
2022-08-25T05:09:36.478Z,2.20
2022-08-25T05:12:04.608Z,2.50
2022-08-25T05:14:32.375Z,2.40
2022-08-25T05:16:59.445Z,2.55
2022-08-25T05:19:26.785Z,2.20
2022-08-25T05:21:54.086Z,2.45
2022-08-25T05:24:22.107Z,2.30
2022-08-25T05:26:48.594Z,2.15
2022-08-25T05:29:15.694Z,2.30
2022-08-25T05:31:48.238Z,2.63
2022-08-25T05:34:15.006Z,2.20
2022-08-25T05:36:43.528Z,2.50
2022-08-25T05:39:10.996Z,2.15
2022-08-25T05:41:37.685Z,2.35
2022-08-25T05:44:04.375Z,2.25
2022-08-25T05:46:31.829Z,2.30
2022-08-25T05:48:58.997Z,2.30
2022-08-25T05:51:26.303Z,2.60
2022-08-25T05:53:53.002Z,2.30
2022-08-25T05:56:20.063Z,2.60
2022-08-25T05:58:47.020Z,2.33
2022-08-25T06:01:45.104Z,2.35
2022-08-25T06:04:12.427Z,2.42
2022-08-25T06:06:39.738Z,2.33
2022-08-25T06:09:10.227Z,2.15
2022-08-25T06:11:39.998Z,2.28
2022-08-25T06:14:12.492Z,2.08
2022-08-25T06:16:40.337Z,2.67
2022-08-25T06:19:09.147Z,2.40
2022-08-25T06:21:37.352Z,2.42
2022-08-25T06:24:04.114Z,2.47
2022-08-25T06:26:30.692Z,2.20
2022-08-25T06:28:57.338Z,2.30
2022-08-25T06:31:23.932Z,2.40
2022-08-25T06:33:51.595Z,2.33
2022-08-25T06:36:19.226Z,2.45
2022-08-25T06:38:46.452Z,2.13
2022-08-25T06:41:13.025Z,1.95
2022-08-25T06:43:48.116Z,2.10
2022-08-25T06:48:44.472Z,2.45
2022-08-25T06:51:14.080Z,2.58
2022-08-25T06:53:41.583Z,2.40
2022-08-25T06:56:08.688Z,2.85
2022-08-25T06:58:35.910Z,2.30
2022-08-25T07:01:27.009Z,2.50
2022-08-25T07:03:57.619Z,2.60
2022-08-25T07:06:25.756Z,2.47
2022-08-25T07:08:52.322Z,2.33
2022-08-25T07:11:21.414Z,2.53
2022-08-25T07:13:48.783Z,2.38
2022-08-25T07:16:16.014Z,2.67
2022-08-25T07:18:44.180Z,2.53
2022-08-25T07:21:12.376Z,2.53
2022-08-25T07:23:40.148Z,2.67
2022-08-25T07:26:37.436Z,2.47
2022-08-25T07:29:09.645Z,2.65
2022-08-25T07:31:36.337Z,2.42
2022-08-25T07:34:23.273Z,2.40
2022-08-25T07:36:49.717Z,2.70
2022-08-25T07:39:17.590Z,3.10
2022-08-25T07:41:48.842Z,2.95
2022-08-25T07:44:19.460Z,3.38
2022-08-25T07:46:45.977Z,3.00
2022-08-25T07:49:12.758Z,2.67
2022-08-25T07:51:55.219Z,3.17
2022-08-25T07:54:33.903Z,2.80
2022-08-25T07:57:01.455Z,2.70
2022-08-25T07:59:28.063Z,2.72
2022-08-25T08:01:54.591Z,2.95
2022-08-25T08:04:21.096Z,3.30
2022-08-25T08:06:47.605Z,3.55
2022-08-25T08:09:14.136Z,3.20
2022-08-25T08:11:53.752Z,3.25
2022-08-25T08:14:21.307Z,4.65
2022-08-25T08:16:48.063Z,5.97
2022-08-25T08:19:15.006Z,3.75
2022-08-25T08:21:41.925Z,3.40
2022-08-25T08:24:19.777Z,3.50
2022-08-25T08:26:58.958Z,3.08
2022-08-25T08:29:26.341Z,3.30
2022-08-25T08:31:53.397Z,3.55
2022-08-25T08:34:20.189Z,3.42
2022-08-25T08:36:51.686Z,3.28
2022-08-25T08:39:18.407Z,3.30
2022-08-25T08:42:18.132Z,3.22
2022-08-25T08:44:44.673Z,3.22
2022-08-25T08:47:27.299Z,2.83
2022-08-25T08:50:06.298Z,2.80
2022-08-25T08:52:54.642Z,3.00
2022-08-25T08:55:30.304Z,3.03
2022-08-25T08:57:59.724Z,3.13
2022-08-25T09:00:27.890Z,3.15
2022-08-25T09:02:58.678Z,2.95
2022-08-25T09:05:28.730Z,2.97
2022-08-25T09:08:11.796Z,3.17
2022-08-25T09:11:10.930Z,2.83
2022-08-25T09:14:01.903Z,3.05
2022-08-25T09:17:02.965Z,2.78
2022-08-25T09:19:49.515Z,2.58
2022-08-25T09:22:35.256Z,2.97
2022-08-25T09:28:24.040Z,3.13
2022-08-25T09:30:59.484Z,3.03
2022-08-25T09:33:27.886Z,3.10
2022-08-25T09:35:57.539Z,3.40
2022-08-25T09:38:26.273Z,2.80
2022-08-25T09:40:57.958Z,3.15
2022-08-25T09:43:32.210Z,3.00
2022-08-25T09:46:27.809Z,2.80
2022-08-25T09:48:57.831Z,3.10
2022-08-25T09:51:38.333Z,3.47
2022-08-25T09:54:12.575Z,3.10
2022-08-25T09:57:05.549Z,3.00
2022-08-25T09:59:37.179Z,3.42
2022-08-25T10:02:22.055Z,3.20
2022-08-25T10:04:48.540Z,2.60
2022-08-25T10:07:51.924Z,2.72
2022-08-25T10:10:28.147Z,2.60
2022-08-25T10:13:01.250Z,3.05
2022-08-25T10:15:36.039Z,2.83
2022-08-25T10:18:21.194Z,3.10
2022-08-25T10:21:07.533Z,3.05
2022-08-25T10:23:38.687Z,2.70
2022-08-25T10:26:14.443Z,3.40
2022-08-25T10:28:54.028Z,3.20
2022-08-25T10:31:46.451Z,3.03
2022-08-25T10:34:20.533Z,3.13
2022-08-25T10:37:03.253Z,3.03
2022-08-25T10:39:36.691Z,3.17
2022-08-25T10:42:39.737Z,3.13
2022-08-25T10:45:43.261Z,3.35
2022-08-25T10:48:34.664Z,3.17
2022-08-25T10:51:25.395Z,2.97
2022-08-25T10:54:06.218Z,3.00
2022-08-25T10:56:42.011Z,3.42
2022-08-25T10:59:19.274Z,3.25
2022-08-25T11:02:16.524Z,3.30
2022-08-25T11:04:59.756Z,3.05
2022-08-25T11:07:34.697Z,3.00
2022-08-25T11:10:09.839Z,3.10
2022-08-25T11:12:47.025Z,3.00
2022-08-25T11:15:21.010Z,3.45
2022-08-25T11:18:04.612Z,3.40
2022-08-25T11:20:51.922Z,3.30
2022-08-25T11:23:35.330Z,3.33
2022-08-25T11:26:13.550Z,3.35
2022-08-25T11:28:59.162Z,3.60
2022-08-25T11:31:27.723Z,3.47
2022-08-25T11:33:56.506Z,3.38
2022-08-25T11:36:35.756Z,3.50
2022-08-25T11:39:34.397Z,3.40
2022-08-25T11:42:20.881Z,3.38
2022-08-25T11:47:48.038Z,3.55
2022-08-25T11:50:25.889Z,3.50
2022-08-25T11:53:18.676Z,3.95
2022-08-25T11:55:56.872Z,3.90
2022-08-25T11:58:46.618Z,3.83
2022-08-25T12:01:32.457Z,3.40
2022-08-25T12:04:44.932Z,3.65
2022-08-25T12:07:22.172Z,3.63
2022-08-25T12:09:51.685Z,3.80
2022-08-25T12:12:46.738Z,3.88
2022-08-25T12:15:31.741Z,3.30
2022-08-25T12:18:14.062Z,3.95
2022-08-25T12:20:54.231Z,3.60
2022-08-25T12:23:44.955Z,3.50
2022-08-25T12:26:32.935Z,3.42
2022-08-25T12:29:14.865Z,3.65
2022-08-25T12:32:04.915Z,4.00
2022-08-25T12:34:54.180Z,3.50
2022-08-25T12:37:23.612Z,3.95
2022-08-25T12:39:50.114Z,3.22
2022-08-25T12:42:35.409Z,3.80
2022-08-25T12:45:10.312Z,3.88
2022-08-25T12:47:37.776Z,3.50
2022-08-25T12:50:46.229Z,3.95
2022-08-25T12:53:33.960Z,4.13
2022-08-25T12:56:05.110Z,3.70
2022-08-25T12:59:00.238Z,3.60
2022-08-25T13:02:03.183Z,3.72
2022-08-25T13:05:11.525Z,3.70
2022-08-25T13:07:58.433Z,3.83
2022-08-25T13:11:09.495Z,3.90
2022-08-25T13:14:00.389Z,3.70
2022-08-25T13:16:30.097Z,3.85
2022-08-25T13:18:59.419Z,3.97
2022-08-25T13:21:42.498Z,3.78
2022-08-25T13:24:14.569Z,4.03
2022-08-25T13:26:48.343Z,3.33
2022-08-25T13:29:20.443Z,3.45
2022-08-25T13:32:09.618Z,4.20
2022-08-25T13:34:42.916Z,3.80
2022-08-25T13:37:30.589Z,3.50
2022-08-25T13:40:11.949Z,3.58
2022-08-25T13:42:49.008Z,4.10
2022-08-25T13:45:24.885Z,3.63
2022-08-25T13:47:56.128Z,3.83
2022-08-25T13:50:26.346Z,3.50
2022-08-25T13:52:56.334Z,3.22
2022-08-25T13:55:50.800Z,3.10
2022-08-25T13:58:39.458Z,3.92
2022-08-25T14:01:48.312Z,3.28
2022-08-25T14:04:23.040Z,3.22
2022-08-25T14:07:07.383Z,3.38
2022-08-25T14:09:45.451Z,3.53
2022-08-25T14:15:16.734Z,3.45
2022-08-25T14:17:48.814Z,3.70
2022-08-25T14:20:27.114Z,3.10
2022-08-25T14:22:58.119Z,3.17
2022-08-25T14:25:26.770Z,3.33
2022-08-25T14:28:06.915Z,3.30
2022-08-25T14:30:36.297Z,3.13
2022-08-25T14:33:04.042Z,3.05
2022-08-25T14:35:31.425Z,3.10
2022-08-25T14:37:58.195Z,2.85
2022-08-25T14:40:24.835Z,2.63
2022-08-25T14:42:51.479Z,3.08
2022-08-25T14:45:19.524Z,3.08
2022-08-25T14:47:49.662Z,3.13
2022-08-25T14:50:20.158Z,3.08
2022-08-25T14:52:48.287Z,3.20
2022-08-25T14:55:30.785Z,3.20
2022-08-25T14:57:58.650Z,3.47
2022-08-25T15:00:26.042Z,3.33
2022-08-25T15:02:52.978Z,3.45
2022-08-25T15:05:24.665Z,3.25
2022-08-25T15:08:12.148Z,3.58
2022-08-25T15:10:39.671Z,3.53
2022-08-25T15:13:07.255Z,3.60
2022-08-25T15:15:38.611Z,3.45
2022-08-25T15:18:18.870Z,3.03
2022-08-25T15:20:46.750Z,3.30
2022-08-25T15:23:16.521Z,3.20
2022-08-25T15:25:45.343Z,3.15
2022-08-25T15:28:12.778Z,3.40
2022-08-25T15:30:45.649Z,3.20
2022-08-25T15:33:13.041Z,3.35
2022-08-25T15:35:40.332Z,3.30
2022-08-25T15:38:08.209Z,3.65
2022-08-25T15:40:37.502Z,3.35
2022-08-25T15:43:04.882Z,3.33
2022-08-25T15:45:32.072Z,3.05
2022-08-25T15:47:59.468Z,3.17
2022-08-25T15:50:26.864Z,2.97
2022-08-25T15:52:53.317Z,3.05
2022-08-25T15:55:20.127Z,3.20
2022-08-25T15:57:47.893Z,3.10
2022-08-25T16:00:18.019Z,2.97
2022-08-25T16:02:50.593Z,2.90
2022-08-25T16:05:20.431Z,3.00
2022-08-25T16:07:52.342Z,3.13
2022-08-25T16:10:19.293Z,2.90
2022-08-25T16:12:46.719Z,3.13
2022-08-25T16:15:13.513Z,4.38
2022-08-25T16:17:40.695Z,3.65
2022-08-25T16:20:13.873Z,3.30
2022-08-25T16:22:40.997Z,3.30
2022-08-25T16:25:07.934Z,3.17
2022-08-25T16:27:38.850Z,3.10
2022-08-25T16:30:16.806Z,3.15
2022-08-25T16:32:44.878Z,3.60
2022-08-25T16:35:13.030Z,4.25
2022-08-25T16:37:40.611Z,3.97
2022-08-25T16:40:13.294Z,3.33
2022-08-25T16:42:41.294Z,2.92
2022-08-25T16:45:07.992Z,3.08
2022-08-25T16:47:37.800Z,2.90
2022-08-25T16:50:06.194Z,2.88
2022-08-25T16:52:51.911Z,3.22
2022-08-25T16:57:53.811Z,2.72
2022-08-25T17:00:24.834Z,2.70
2022-08-25T17:02:59.259Z,3.28
2022-08-25T17:05:29.892Z,2.50
2022-08-25T17:08:17.580Z,3.17
2022-08-25T17:10:44.239Z,3.15
2022-08-25T17:13:11.427Z,2.97
2022-08-25T17:15:44.400Z,2.85
2022-08-25T17:18:11.511Z,2.97
2022-08-25T17:20:40.343Z,2.50
2022-08-25T17:23:12.146Z,2.70
2022-08-25T17:25:41.284Z,2.92
2022-08-25T17:28:09.457Z,2.75
2022-08-25T17:30:39.278Z,2.55
2022-08-25T17:33:05.730Z,2.85
2022-08-25T17:35:32.210Z,2.97
2022-08-25T17:37:58.645Z,2.90
2022-08-25T17:40:26.566Z,2.53
2022-08-25T17:42:53.505Z,2.67
2022-08-25T17:45:20.135Z,2.47
2022-08-25T17:47:46.548Z,2.50
2022-08-25T17:50:15.364Z,2.67
2022-08-25T17:52:43.424Z,2.67
2022-08-25T17:55:10.918Z,3.00
2022-08-25T17:57:38.867Z,2.88
2022-08-25T18:00:11.829Z,2.80
2022-08-25T18:02:39.838Z,3.40
2022-08-25T18:05:07.069Z,3.72
2022-08-25T18:07:33.730Z,3.55
2022-08-25T18:10:00.452Z,3.38
2022-08-25T18:12:27.396Z,3.20
2022-08-25T18:14:54.196Z,3.47
2022-08-25T18:17:21.858Z,3.60
2022-08-25T18:19:49.486Z,3.47
2022-08-25T18:22:16.701Z,3.10
2022-08-25T18:24:44.401Z,3.75
2022-08-25T18:27:11.402Z,3.72
2022-08-25T18:29:37.947Z,3.95
2022-08-25T18:32:07.259Z,3.55
2022-08-25T18:34:33.965Z,4.10
2022-08-25T18:37:22.994Z,3.53
2022-08-25T18:40:09.389Z,3.90
2022-08-25T18:42:36.394Z,3.80
2022-08-25T18:45:05.958Z,3.72
2022-08-25T18:47:33.307Z,4.65
2022-08-25T18:50:04.503Z,3.63
2022-08-25T18:52:31.375Z,3.72
2022-08-25T18:54:59.347Z,3.97
2022-08-25T18:57:27.494Z,4.10
2022-08-25T18:59:55.387Z,4.20
2022-08-25T19:02:22.218Z,3.65
2022-08-25T19:04:52.590Z,4.30
2022-08-25T19:07:19.598Z,4.47
2022-08-25T19:09:46.141Z,4.72
2022-08-25T19:12:14.575Z,4.25
2022-08-25T19:14:49.366Z,4.40
2022-08-25T19:17:16.522Z,4.00
2022-08-25T19:19:43.179Z,4.32
2022-08-25T19:22:31.759Z,4.53
2022-08-25T19:24:57.764Z,4.05
2022-08-25T19:27:24.973Z,4.30
2022-08-25T19:29:51.638Z,4.25
2022-08-25T19:32:18.186Z,4.07
2022-08-25T19:34:47.312Z,4.43
2022-08-25T19:37:18.101Z,4.40
2022-08-25T19:39:52.636Z,4.50
2022-08-25T19:42:35.284Z,4.45
2022-08-25T19:45:08.660Z,4.30
2022-08-25T19:47:35.164Z,3.90
2022-08-25T19:50:01.617Z,4.38
2022-08-25T19:52:28.810Z,4.30
2022-08-25T19:54:55.406Z,4.45
2022-08-25T19:57:28.545Z,4.78
2022-08-25T20:00:22.914Z,4.53
2022-08-25T20:02:50.925Z,4.15
2022-08-25T20:05:23.837Z,4.40
2022-08-25T20:07:53.114Z,4.60
2022-08-25T20:10:20.674Z,4.28
2022-08-25T20:12:47.403Z,4.50
2022-08-25T20:15:16.642Z,4.85
2022-08-25T20:17:45.092Z,4.05
2022-08-25T20:20:15.273Z,4.65
2022-08-25T20:22:42.529Z,4.72
2022-08-25T20:25:17.622Z,4.38
2022-08-25T20:27:48.836Z,4.20
2022-08-25T20:30:24.424Z,4.28
2022-08-25T20:32:52.658Z,4.50
2022-08-25T20:35:19.371Z,4.25
2022-08-25T20:37:47.566Z,5.00
2022-08-25T20:40:17.041Z,4.55
2022-08-25T20:42:44.384Z,3.88
2022-08-25T20:45:14.137Z,4.10
2022-08-25T20:47:41.115Z,4.72
2022-08-25T20:50:09.144Z,4.38
2022-08-25T20:52:37.354Z,4.60
2022-08-25T20:55:09.202Z,4.55
2022-08-25T20:57:35.907Z,4.20
2022-08-25T21:00:03.104Z,5.00
2022-08-25T21:02:31.088Z,4.55
2022-08-25T21:04:57.801Z,4.25
2022-08-25T21:07:25.500Z,4.32
2022-08-25T21:09:52.193Z,4.72
2022-08-25T21:12:18.843Z,4.45
2022-08-25T21:14:45.505Z,4.05
2022-08-25T21:17:14.345Z,4.80
2022-08-25T21:19:41.949Z,4.82
2022-08-25T21:22:09.406Z,4.53
2022-08-25T21:24:37.643Z,4.55
2022-08-25T21:27:04.557Z,4.72
2022-08-25T21:29:32.616Z,4.63
2022-08-25T21:31:59.163Z,4.82
2022-08-25T21:34:28.907Z,5.15
2022-08-25T21:36:57.864Z,4.57
2022-08-25T21:39:29.696Z,4.28
2022-08-25T21:41:59.976Z,4.55
2022-08-25T21:44:26.970Z,4.75
2022-08-25T21:46:54.282Z,4.38
2022-08-25T21:49:21.562Z,4.45
2022-08-25T21:51:50.950Z,5.00
2022-08-25T21:54:24.144Z,4.50
2022-08-25T21:56:53.505Z,4.90
2022-08-25T21:59:24.025Z,4.70
2022-08-25T22:02:23.249Z,4.75
2022-08-25T22:04:54.261Z,4.68
2022-08-25T22:07:22.510Z,5.22
2022-08-25T22:09:51.694Z,5.03
2022-08-25T22:12:19.342Z,4.43
2022-08-25T22:14:46.055Z,4.88
2022-08-25T22:17:16.850Z,4.38
2022-08-25T22:19:47.463Z,4.78
2022-08-25T22:22:15.805Z,4.70
2022-08-25T22:24:47.474Z,5.07
2022-08-25T22:27:15.779Z,4.88
2022-08-25T22:29:43.998Z,5.25
2022-08-25T22:32:10.718Z,4.70
2022-08-25T22:34:40.421Z,4.88
2022-08-25T22:37:06.951Z,4.60
2022-08-25T22:39:34.948Z,4.63
2022-08-25T22:42:02.917Z,4.60
2022-08-25T22:44:29.731Z,5.10
2022-08-25T22:46:56.406Z,5.30
2022-08-25T22:49:23.621Z,5.05
2022-08-25T22:51:50.081Z,5.20
2022-08-25T22:54:17.764Z,5.03
2022-08-25T22:56:44.527Z,4.63
2022-08-25T22:59:12.918Z,4.60
2022-08-25T23:01:41.027Z,5.13
2022-08-25T23:04:07.704Z,5.22
2022-08-25T23:06:34.761Z,4.78
2022-08-25T23:09:03.630Z,5.20
2022-08-25T23:11:30.174Z,5.18
2022-08-25T23:14:00.476Z,4.70
2022-08-25T23:16:28.406Z,5.25
2022-08-25T23:18:55.489Z,4.60
2022-08-25T23:21:41.096Z,4.47
2022-08-25T23:24:13.473Z,5.07
2022-08-25T23:26:41.937Z,5.03
2022-08-25T23:29:18.594Z,4.97
2022-08-25T23:31:46.836Z,5.00
2022-08-25T23:34:16.084Z,4.95
2022-08-25T23:36:42.846Z,5.63
2022-08-25T23:39:10.736Z,5.55
2022-08-25T23:41:37.344Z,5.15
2022-08-25T23:44:05.362Z,4.97
2022-08-25T23:46:34.880Z,5.05
2022-08-25T23:49:03.959Z,5.28
2022-08-25T23:51:33.532Z,6.03
2022-08-25T23:54:05.796Z,5.68
2022-08-25T23:56:34.380Z,5.30
2022-08-25T23:59:02.291Z,5.40
